sensor_id;sensor_type;location;lat;lon;timestamp;P1;durP1;ratioP1;P2;durP2;ratioP2
69188;SDS011;56302;52.322;5.926;2023-02-15T00:01:24;28.97;;;13.20;;
69188;SDS011;56302;52.322;5.926;2023-02-15T00:03:50;26.87;;;10.93;;
69188;SDS011;56302;52.322;5.926;2023-02-15T00:06:16;28.02;;;13.10;;
69188;SDS011;56302;52.322;5.926;2023-02-15T00:08:41;28.40;;;12.73;;
69188;SDS011;56302;52.322;5.926;2023-02-15T00:11:07;27.07;;;12.87;;
69188;SDS011;56302;52.322;5.926;2023-02-15T00:13:34;27.73;;;12.77;;
69188;SDS011;56302;52.322;5.926;2023-02-15T00:16:05;29.08;;;13.95;;
69188;SDS011;56302;52.322;5.926;2023-02-15T00:18:32;27.48;;;12.68;;
69188;SDS011;56302;52.322;5.926;2023-02-15T00:20:57;27.77;;;12.57;;
69188;SDS011;56302;52.322;5.926;2023-02-15T00:23:23;26.73;;;11.95;;
69188;SDS011;56302;52.322;5.926;2023-02-15T00:25:51;28.70;;;14.45;;
69188;SDS011;56302;52.322;5.926;2023-02-15T00:28:16;37.17;;;15.57;;
69188;SDS011;56302;52.322;5.926;2023-02-15T00:30:42;33.50;;;14.63;;
69188;SDS011;56302;52.322;5.926;2023-02-15T00:33:07;30.10;;;14.70;;
69188;SDS011;56302;52.322;5.926;2023-02-15T00:35:32;30.55;;;14.38;;
69188;SDS011;56302;52.322;5.926;2023-02-15T00:37:58;34.27;;;15.17;;
69188;SDS011;56302;52.322;5.926;2023-02-15T00:40:24;34.67;;;14.57;;
69188;SDS011;56302;52.322;5.926;2023-02-15T00:42:50;32.72;;;14.40;;
69188;SDS011;56302;52.322;5.926;2023-02-15T00:45:15;33.97;;;15.17;;
69188;SDS011;56302;52.322;5.926;2023-02-15T00:47:41;39.63;;;16.17;;
69188;SDS011;56302;52.322;5.926;2023-02-15T00:50:06;38.43;;;16.30;;
69188;SDS011;56302;52.322;5.926;2023-02-15T00:52:32;40.63;;;17.57;;
69188;SDS011;56302;52.322;5.926;2023-02-15T00:54:58;37.92;;;16.15;;
69188;SDS011;56302;52.322;5.926;2023-02-15T00:57:23;37.00;;;16.50;;
69188;SDS011;56302;52.322;5.926;2023-02-15T00:59:48;36.90;;;16.53;;
69188;SDS011;56302;52.322;5.926;2023-02-15T01:02:14;42.35;;;16.80;;
69188;SDS011;56302;52.322;5.926;2023-02-15T01:04:40;41.23;;;17.50;;
69188;SDS011;56302;52.322;5.926;2023-02-15T01:07:05;128.90;;;20.80;;
69188;SDS011;56302;52.322;5.926;2023-02-15T01:09:31;45.58;;;18.23;;
69188;SDS011;56302;52.322;5.926;2023-02-15T01:11:56;44.33;;;17.87;;
69188;SDS011;56302;52.322;5.926;2023-02-15T01:14:22;39.67;;;17.03;;
69188;SDS011;56302;52.322;5.926;2023-02-15T01:16:47;38.77;;;17.83;;
69188;SDS011;56302;52.322;5.926;2023-02-15T01:19:13;43.25;;;17.23;;
69188;SDS011;56302;52.322;5.926;2023-02-15T01:21:38;45.67;;;18.17;;
69188;SDS011;56302;52.322;5.926;2023-02-15T01:24:05;39.83;;;15.85;;
69188;SDS011;56302;52.322;5.926;2023-02-15T01:26:36;44.13;;;17.30;;
69188;SDS011;56302;52.322;5.926;2023-02-15T01:29:02;36.10;;;15.80;;
69188;SDS011;56302;52.322;5.926;2023-02-15T01:31:27;37.27;;;17.00;;
69188;SDS011;56302;52.322;5.926;2023-02-15T01:33:53;39.47;;;17.23;;
69188;SDS011;56302;52.322;5.926;2023-02-15T01:36:18;36.70;;;16.47;;
69188;SDS011;56302;52.322;5.926;2023-02-15T01:38:44;36.25;;;16.85;;
69188;SDS011;56302;52.322;5.926;2023-02-15T01:41:10;38.83;;;16.58;;
69188;SDS011;56302;52.322;5.926;2023-02-15T01:44:00;37.90;;;16.53;;
69188;SDS011;56302;52.322;5.926;2023-02-15T01:46:30;43.03;;;18.25;;
69188;SDS011;56302;52.322;5.926;2023-02-15T01:49:07;42.28;;;17.65;;
69188;SDS011;56302;52.322;5.926;2023-02-15T01:51:39;41.28;;;18.35;;
69188;SDS011;56302;52.322;5.926;2023-02-15T01:54:18;41.00;;;18.48;;
69188;SDS011;56302;52.322;5.926;2023-02-15T01:56:52;43.03;;;18.43;;
69188;SDS011;56302;52.322;5.926;2023-02-15T01:59:21;46.72;;;19.38;;
69188;SDS011;56302;52.322;5.926;2023-02-15T02:01:50;50.42;;;19.13;;
69188;SDS011;56302;52.322;5.926;2023-02-15T02:04:23;54.90;;;20.23;;
69188;SDS011;56302;52.322;5.926;2023-02-15T02:07:01;46.70;;;18.73;;
69188;SDS011;56302;52.322;5.926;2023-02-15T02:09:29;45.83;;;19.67;;
69188;SDS011;56302;52.322;5.926;2023-02-15T02:11:55;45.47;;;19.60;;
69188;SDS011;56302;52.322;5.926;2023-02-15T02:14:20;43.95;;;19.90;;
69188;SDS011;56302;52.322;5.926;2023-02-15T02:16:52;45.70;;;19.63;;
69188;SDS011;56302;52.322;5.926;2023-02-15T02:19:38;49.75;;;19.20;;
69188;SDS011;56302;52.322;5.926;2023-02-15T02:22:36;43.13;;;18.55;;
69188;SDS011;56302;52.322;5.926;2023-02-15T02:25:14;46.63;;;19.17;;
69188;SDS011;56302;52.322;5.926;2023-02-15T02:33:08;42.28;;;17.95;;
69188;SDS011;56302;52.322;5.926;2023-02-15T02:35:57;50.72;;;19.13;;
69188;SDS011;56302;52.322;5.926;2023-02-15T02:38:44;45.60;;;18.98;;
69188;SDS011;56302;52.322;5.926;2023-02-15T02:41:55;41.57;;;18.83;;
69188;SDS011;56302;52.322;5.926;2023-02-15T02:44:43;42.75;;;17.95;;
69188;SDS011;56302;52.322;5.926;2023-02-15T02:47:14;44.28;;;18.58;;
69188;SDS011;56302;52.322;5.926;2023-02-15T02:49:44;40.55;;;17.33;;
69188;SDS011;56302;52.322;5.926;2023-02-15T02:55:00;39.47;;;16.50;;
69188;SDS011;56302;52.322;5.926;2023-02-15T02:57:28;41.00;;;18.55;;
69188;SDS011;56302;52.322;5.926;2023-02-15T02:59:57;40.33;;;18.10;;
69188;SDS011;56302;52.322;5.926;2023-02-15T03:02:29;41.40;;;17.93;;
69188;SDS011;56302;52.322;5.926;2023-02-15T03:05:00;37.10;;;17.08;;
69188;SDS011;56302;52.322;5.926;2023-02-15T03:07:31;40.67;;;16.75;;
69188;SDS011;56302;52.322;5.926;2023-02-15T03:09:58;39.08;;;17.20;;
69188;SDS011;56302;52.322;5.926;2023-02-15T03:17:31;42.90;;;16.90;;
69188;SDS011;56302;52.322;5.926;2023-02-15T03:20:00;37.70;;;15.90;;
69188;SDS011;56302;52.322;5.926;2023-02-15T03:22:31;40.15;;;17.02;;
69188;SDS011;56302;52.322;5.926;2023-02-15T03:25:06;39.30;;;16.55;;
69188;SDS011;56302;52.322;5.926;2023-02-15T03:27:41;38.03;;;17.37;;
69188;SDS011;56302;52.322;5.926;2023-02-15T03:30:11;38.55;;;15.45;;
69188;SDS011;56302;52.322;5.926;2023-02-15T03:32:39;34.17;;;14.50;;
69188;SDS011;56302;52.322;5.926;2023-02-15T03:35:08;41.60;;;15.10;;
69188;SDS011;56302;52.322;5.926;2023-02-15T03:40:38;30.70;;;14.13;;
69188;SDS011;56302;52.322;5.926;2023-02-15T03:43:30;34.00;;;13.90;;
69188;SDS011;56302;52.322;5.926;2023-02-15T03:49:09;33.83;;;14.60;;
69188;SDS011;56302;52.322;5.926;2023-02-15T03:51:48;30.05;;;13.75;;
69188;SDS011;56302;52.322;5.926;2023-02-15T03:54:18;31.93;;;14.80;;
69188;SDS011;56302;52.322;5.926;2023-02-15T03:57:07;31.90;;;14.38;;
69188;SDS011;56302;52.322;5.926;2023-02-15T04:00:22;33.00;;;14.82;;
69188;SDS011;56302;52.322;5.926;2023-02-15T04:05:39;32.08;;;14.10;;
69188;SDS011;56302;52.322;5.926;2023-02-15T04:08:06;29.90;;;13.27;;
69188;SDS011;56302;52.322;5.926;2023-02-15T04:10:33;35.30;;;15.65;;
69188;SDS011;56302;52.322;5.926;2023-02-15T04:13:17;32.60;;;14.80;;
69188;SDS011;56302;52.322;5.926;2023-02-15T04:15:47;37.40;;;16.17;;
69188;SDS011;56302;52.322;5.926;2023-02-15T04:18:27;29.77;;;14.27;;
69188;SDS011;56302;52.322;5.926;2023-02-15T04:21:16;35.63;;;16.33;;
69188;SDS011;56302;52.322;5.926;2023-02-15T04:24:01;35.88;;;16.02;;
69188;SDS011;56302;52.322;5.926;2023-02-15T04:26:45;34.05;;;15.68;;
69188;SDS011;56302;52.322;5.926;2023-02-15T04:29:12;36.08;;;15.10;;
69188;SDS011;56302;52.322;5.926;2023-02-15T04:31:38;36.47;;;15.77;;
69188;SDS011;56302;52.322;5.926;2023-02-15T04:34:03;34.70;;;16.90;;
69188;SDS011;56302;52.322;5.926;2023-02-15T04:36:29;35.93;;;16.17;;
69188;SDS011;56302;52.322;5.926;2023-02-15T04:38:55;36.87;;;15.33;;
69188;SDS011;56302;52.322;5.926;2023-02-15T04:41:20;34.08;;;15.52;;
69188;SDS011;56302;52.322;5.926;2023-02-15T04:43:46;31.33;;;14.70;;
69188;SDS011;56302;52.322;5.926;2023-02-15T04:46:11;30.23;;;14.83;;
69188;SDS011;56302;52.322;5.926;2023-02-15T04:48:37;33.00;;;14.85;;
69188;SDS011;56302;52.322;5.926;2023-02-15T04:51:08;30.93;;;14.97;;
69188;SDS011;56302;52.322;5.926;2023-02-15T04:53:34;31.60;;;14.70;;
69188;SDS011;56302;52.322;5.926;2023-02-15T04:56:00;33.77;;;14.70;;
69188;SDS011;56302;52.322;5.926;2023-02-15T04:58:25;28.40;;;13.57;;
69188;SDS011;56302;52.322;5.926;2023-02-15T05:00:51;29.98;;;13.75;;
69188;SDS011;56302;52.322;5.926;2023-02-15T05:03:19;26.53;;;13.27;;
69188;SDS011;56302;52.322;5.926;2023-02-15T05:05:45;27.95;;;13.73;;
69188;SDS011;56302;52.322;5.926;2023-02-15T05:08:10;29.20;;;13.83;;
69188;SDS011;56302;52.322;5.926;2023-02-15T05:10:36;30.77;;;14.30;;
69188;SDS011;56302;52.322;5.926;2023-02-15T05:13:01;32.90;;;15.07;;
69188;SDS011;56302;52.322;5.926;2023-02-15T05:15:27;30.88;;;13.50;;
69188;SDS011;56302;52.322;5.926;2023-02-15T05:17:52;32.23;;;13.93;;
69188;SDS011;56302;52.322;5.926;2023-02-15T05:20:18;33.00;;;14.10;;
69188;SDS011;56302;52.322;5.926;2023-02-15T05:22:43;33.95;;;15.27;;
69188;SDS011;56302;52.322;5.926;2023-02-15T05:25:09;33.38;;;15.00;;
69188;SDS011;56302;52.322;5.926;2023-02-15T05:27:53;38.75;;;16.27;;
69188;SDS011;56302;52.322;5.926;2023-02-15T05:30:38;32.33;;;14.17;;
69188;SDS011;56302;52.322;5.926;2023-02-15T05:33:04;31.75;;;14.45;;
69188;SDS011;56302;52.322;5.926;2023-02-15T05:35:31;32.85;;;14.70;;
69188;SDS011;56302;52.322;5.926;2023-02-15T05:37:57;32.83;;;13.75;;
69188;SDS011;56302;52.322;5.926;2023-02-15T05:40:22;28.47;;;14.10;;
69188;SDS011;56302;52.322;5.926;2023-02-15T05:42:48;31.23;;;12.93;;
69188;SDS011;56302;52.322;5.926;2023-02-15T05:45:13;26.05;;;12.95;;
69188;SDS011;56302;52.322;5.926;2023-02-15T05:47:40;27.45;;;13.38;;
69188;SDS011;56302;52.322;5.926;2023-02-15T05:50:06;26.83;;;13.30;;
69188;SDS011;56302;52.322;5.926;2023-02-15T05:52:32;30.27;;;14.07;;
69188;SDS011;56302;52.322;5.926;2023-02-15T05:54:57;29.53;;;14.40;;
69188;SDS011;56302;52.322;5.926;2023-02-15T05:57:25;28.00;;;13.40;;
69188;SDS011;56302;52.322;5.926;2023-02-15T05:59:50;26.38;;;13.93;;
69188;SDS011;56302;52.322;5.926;2023-02-15T06:02:16;28.77;;;13.60;;
69188;SDS011;56302;52.322;5.926;2023-02-15T06:04:41;26.50;;;13.73;;
69188;SDS011;56302;52.322;5.926;2023-02-15T06:07:07;24.53;;;13.10;;
69188;SDS011;56302;52.322;5.926;2023-02-15T06:09:32;28.60;;;14.18;;
69188;SDS011;56302;52.322;5.926;2023-02-15T06:11:58;26.07;;;13.20;;
69188;SDS011;56302;52.322;5.926;2023-02-15T06:14:23;26.03;;;13.87;;
69188;SDS011;56302;52.322;5.926;2023-02-15T06:16:49;29.53;;;13.07;;
69188;SDS011;56302;52.322;5.926;2023-02-15T06:19:15;28.80;;;13.32;;
69188;SDS011;56302;52.322;5.926;2023-02-15T06:21:40;29.63;;;13.87;;
69188;SDS011;56302;52.322;5.926;2023-02-15T06:24:07;26.60;;;12.77;;
69188;SDS011;56302;52.322;5.926;2023-02-15T06:26:33;26.73;;;13.50;;
69188;SDS011;56302;52.322;5.926;2023-02-15T06:28:59;26.95;;;13.30;;
69188;SDS011;56302;52.322;5.926;2023-02-15T06:31:24;31.17;;;14.40;;
69188;SDS011;56302;52.322;5.926;2023-02-15T06:33:50;29.03;;;14.63;;
69188;SDS011;56302;52.322;5.926;2023-02-15T06:36:15;27.88;;;13.73;;
69188;SDS011;56302;52.322;5.926;2023-02-15T06:38:41;29.67;;;14.20;;
69188;SDS011;56302;52.322;5.926;2023-02-15T06:41:06;30.83;;;14.60;;
69188;SDS011;56302;52.322;5.926;2023-02-15T06:43:32;28.53;;;13.97;;
69188;SDS011;56302;52.322;5.926;2023-02-15T06:45:59;28.83;;;14.13;;
69188;SDS011;56302;52.322;5.926;2023-02-15T06:48:25;30.20;;;14.43;;
69188;SDS011;56302;52.322;5.926;2023-02-15T06:50:50;29.80;;;14.10;;
69188;SDS011;56302;52.322;5.926;2023-02-15T06:53:16;27.75;;;13.98;;
69188;SDS011;56302;52.322;5.926;2023-02-15T06:55:41;27.90;;;13.53;;
69188;SDS011;56302;52.322;5.926;2023-02-15T06:58:07;29.17;;;14.50;;
69188;SDS011;56302;52.322;5.926;2023-02-15T07:00:32;34.37;;;14.87;;
69188;SDS011;56302;52.322;5.926;2023-02-15T07:02:58;31.05;;;14.68;;
69188;SDS011;56302;52.322;5.926;2023-02-15T07:05:25;33.03;;;15.37;;
69188;SDS011;56302;52.322;5.926;2023-02-15T07:07:55;29.02;;;14.73;;
69188;SDS011;56302;52.322;5.926;2023-02-15T07:10:22;29.48;;;13.88;;
69188;SDS011;56302;52.322;5.926;2023-02-15T07:12:47;32.03;;;14.10;;
69188;SDS011;56302;52.322;5.926;2023-02-15T07:15:14;32.05;;;14.15;;
69188;SDS011;56302;52.322;5.926;2023-02-15T07:17:41;28.05;;;13.57;;
69188;SDS011;56302;52.322;5.926;2023-02-15T07:20:09;30.40;;;14.85;;
69188;SDS011;56302;52.322;5.926;2023-02-15T07:22:39;29.05;;;14.43;;
69188;SDS011;56302;52.322;5.926;2023-02-15T07:25:06;30.20;;;14.23;;
69188;SDS011;56302;52.322;5.926;2023-02-15T07:27:33;28.90;;;13.98;;
69188;SDS011;56302;52.322;5.926;2023-02-15T07:29:59;28.73;;;13.73;;
69188;SDS011;56302;52.322;5.926;2023-02-15T07:32:27;29.67;;;13.73;;
69188;SDS011;56302;52.322;5.926;2023-02-15T07:34:54;33.85;;;14.52;;
69188;SDS011;56302;52.322;5.926;2023-02-15T07:37:20;28.37;;;15.30;;
69188;SDS011;56302;52.322;5.926;2023-02-15T07:39:45;32.70;;;14.25;;
69188;SDS011;56302;52.322;5.926;2023-02-15T07:42:10;28.67;;;14.40;;
69188;SDS011;56302;52.322;5.926;2023-02-15T07:44:36;32.30;;;15.90;;
69188;SDS011;56302;52.322;5.926;2023-02-15T07:47:01;31.30;;;15.10;;
69188;SDS011;56302;52.322;5.926;2023-02-15T07:49:27;28.63;;;14.02;;
69188;SDS011;56302;52.322;5.926;2023-02-15T07:51:53;34.70;;;14.57;;
69188;SDS011;56302;52.322;5.926;2023-02-15T07:54:18;30.83;;;13.47;;
69188;SDS011;56302;52.322;5.926;2023-02-15T07:56:44;31.58;;;14.38;;
69188;SDS011;56302;52.322;5.926;2023-02-15T07:59:09;28.10;;;14.70;;
69188;SDS011;56302;52.322;5.926;2023-02-15T08:01:36;31.50;;;15.13;;
69188;SDS011;56302;52.322;5.926;2023-02-15T08:04:03;32.78;;;14.65;;
69188;SDS011;56302;52.322;5.926;2023-02-15T08:06:31;28.63;;;13.93;;
69188;SDS011;56302;52.322;5.926;2023-02-15T08:08:58;28.75;;;14.60;;
69188;SDS011;56302;52.322;5.926;2023-02-15T08:11:26;33.42;;;15.98;;
69188;SDS011;56302;52.322;5.926;2023-02-15T08:14:06;32.60;;;15.90;;
69188;SDS011;56302;52.322;5.926;2023-02-15T08:22:06;36.92;;;17.55;;
69188;SDS011;56302;52.322;5.926;2023-02-15T08:24:37;35.55;;;17.50;;
69188;SDS011;56302;52.322;5.926;2023-02-15T08:27:03;39.90;;;18.07;;
69188;SDS011;56302;52.322;5.926;2023-02-15T08:29:30;40.20;;;18.45;;
69188;SDS011;56302;52.322;5.926;2023-02-15T08:31:57;33.72;;;17.63;;
69188;SDS011;56302;52.322;5.926;2023-02-15T08:34:27;34.88;;;17.30;;
69188;SDS011;56302;52.322;5.926;2023-02-15T08:36:54;33.17;;;15.73;;
69188;SDS011;56302;52.322;5.926;2023-02-15T08:39:19;30.63;;;15.82;;
69188;SDS011;56302;52.322;5.926;2023-02-15T08:41:46;32.40;;;15.80;;
69188;SDS011;56302;52.322;5.926;2023-02-15T08:44:13;33.78;;;17.27;;
69188;SDS011;56302;52.322;5.926;2023-02-15T08:46:41;39.00;;;18.58;;
69188;SDS011;56302;52.322;5.926;2023-02-15T08:49:09;37.70;;;19.42;;
69188;SDS011;56302;52.322;5.926;2023-02-15T08:51:40;41.83;;;18.40;;
69188;SDS011;56302;52.322;5.926;2023-02-15T08:54:07;38.80;;;19.57;;
69188;SDS011;56302;52.322;5.926;2023-02-15T08:56:37;43.00;;;20.00;;
69188;SDS011;56302;52.322;5.926;2023-02-15T08:59:05;46.70;;;20.17;;
69188;SDS011;56302;52.322;5.926;2023-02-15T09:01:32;43.40;;;20.35;;
69188;SDS011;56302;52.322;5.926;2023-02-15T09:04:03;48.92;;;20.98;;
69188;SDS011;56302;52.322;5.926;2023-02-15T09:06:30;48.00;;;20.67;;
69188;SDS011;56302;52.322;5.926;2023-02-15T09:08:56;47.60;;;20.83;;
69188;SDS011;56302;52.322;5.926;2023-02-15T09:11:25;48.57;;;21.10;;
69188;SDS011;56302;52.322;5.926;2023-02-15T09:13:56;53.47;;;23.02;;
69188;SDS011;56302;52.322;5.926;2023-02-15T09:16:25;52.05;;;23.30;;
69188;SDS011;56302;52.322;5.926;2023-02-15T09:18:53;50.78;;;23.45;;
69188;SDS011;56302;52.322;5.926;2023-02-15T09:21:20;50.37;;;22.47;;
69188;SDS011;56302;52.322;5.926;2023-02-15T09:23:47;48.53;;;22.20;;
69188;SDS011;56302;52.322;5.926;2023-02-15T09:26:15;49.83;;;22.30;;
69188;SDS011;56302;52.322;5.926;2023-02-15T09:28:43;54.15;;;23.77;;
69188;SDS011;56302;52.322;5.926;2023-02-15T09:33:40;50.53;;;23.43;;
69188;SDS011;56302;52.322;5.926;2023-02-15T09:36:14;56.08;;;24.75;;
69188;SDS011;56302;52.322;5.926;2023-02-15T09:38:57;56.40;;;24.50;;
69188;SDS011;56302;52.322;5.926;2023-02-15T09:55:51;53.80;;;24.90;;
69188;SDS011;56302;52.322;5.926;2023-02-15T09:58:45;46.38;;;22.50;;
69188;SDS011;56302;52.322;5.926;2023-02-15T10:01:22;47.80;;;23.63;;
69188;SDS011;56302;52.322;5.926;2023-02-15T10:07:00;49.05;;;24.05;;
69188;SDS011;56302;52.322;5.926;2023-02-15T10:12:39;50.65;;;24.92;;
69188;SDS011;56302;52.322;5.926;2023-02-15T10:20:35;47.00;;;24.63;;
69188;SDS011;56302;52.322;5.926;2023-02-15T10:26:17;48.72;;;23.80;;
69188;SDS011;56302;52.322;5.926;2023-02-15T10:28:48;48.43;;;24.17;;
69188;SDS011;56302;52.322;5.926;2023-02-15T10:31:38;49.95;;;25.48;;
69188;SDS011;56302;52.322;5.926;2023-02-15T10:34:29;51.95;;;24.52;;
69188;SDS011;56302;52.322;5.926;2023-02-15T10:37:11;48.47;;;23.70;;
69188;SDS011;56302;52.322;5.926;2023-02-15T10:45:24;47.85;;;23.70;;
69188;SDS011;56302;52.322;5.926;2023-02-15T10:51:08;45.95;;;24.42;;
69188;SDS011;56302;52.322;5.926;2023-02-15T10:56:41;47.07;;;24.07;;
69188;SDS011;56302;52.322;5.926;2023-02-15T11:02:20;47.38;;;22.67;;
69188;SDS011;56302;52.322;5.926;2023-02-15T11:05:02;44.85;;;22.27;;
69188;SDS011;56302;52.322;5.926;2023-02-15T11:07:45;43.63;;;21.95;;
69188;SDS011;56302;52.322;5.926;2023-02-15T11:12:48;43.58;;;23.27;;
69188;SDS011;56302;52.322;5.926;2023-02-15T11:17:43;42.47;;;20.38;;
69188;SDS011;56302;52.322;5.926;2023-02-15T11:20:21;41.03;;;21.55;;
69188;SDS011;56302;52.322;5.926;2023-02-15T11:22:54;38.10;;;19.90;;
69188;SDS011;56302;52.322;5.926;2023-02-15T11:25:24;41.08;;;21.00;;
69188;SDS011;56302;52.322;5.926;2023-02-15T11:27:58;32.17;;;15.98;;
69188;SDS011;56302;52.322;5.926;2023-02-15T11:30:34;32.78;;;16.42;;
69188;SDS011;56302;52.322;5.926;2023-02-15T11:33:12;33.50;;;15.90;;
69188;SDS011;56302;52.322;5.926;2023-02-15T11:35:47;34.83;;;15.32;;
69188;SDS011;56302;52.322;5.926;2023-02-15T11:38:19;31.00;;;15.65;;
69188;SDS011;56302;52.322;5.926;2023-02-15T11:40:53;34.50;;;15.43;;
69188;SDS011;56302;52.322;5.926;2023-02-15T11:43:31;27.35;;;14.85;;
69188;SDS011;56302;52.322;5.926;2023-02-15T11:46:04;30.67;;;14.73;;
69188;SDS011;56302;52.322;5.926;2023-02-15T11:48:31;31.77;;;14.93;;
69188;SDS011;56302;52.322;5.926;2023-02-15T11:50:57;30.30;;;14.07;;
69188;SDS011;56302;52.322;5.926;2023-02-15T11:53:24;30.30;;;13.93;;
69188;SDS011;56302;52.322;5.926;2023-02-15T11:55:53;33.33;;;14.48;;
69188;SDS011;56302;52.322;5.926;2023-02-15T11:58:33;29.90;;;13.63;;
69188;SDS011;56302;52.322;5.926;2023-02-15T12:03:54;29.30;;;14.43;;
69188;SDS011;56302;52.322;5.926;2023-02-15T12:06:25;27.52;;;14.57;;
69188;SDS011;56302;52.322;5.926;2023-02-15T12:09:03;28.67;;;13.18;;
69188;SDS011;56302;52.322;5.926;2023-02-15T12:11:47;28.03;;;13.43;;
69188;SDS011;56302;52.322;5.926;2023-02-15T12:14:13;32.08;;;13.68;;
69188;SDS011;56302;52.322;5.926;2023-02-15T12:22:05;29.98;;;13.52;;
69188;SDS011;56302;52.322;5.926;2023-02-15T12:24:38;28.17;;;13.25;;
69188;SDS011;56302;52.322;5.926;2023-02-15T12:27:17;32.42;;;14.27;;
69188;SDS011;56302;52.322;5.926;2023-02-15T12:32:19;30.35;;;12.75;;
69188;SDS011;56302;52.322;5.926;2023-02-15T12:34:53;30.63;;;14.43;;
69188;SDS011;56302;52.322;5.926;2023-02-15T12:37:25;28.20;;;12.88;;
69188;SDS011;56302;52.322;5.926;2023-02-15T12:39:57;30.98;;;14.02;;
69188;SDS011;56302;52.322;5.926;2023-02-15T12:42:24;28.20;;;12.90;;
69188;SDS011;56302;52.322;5.926;2023-02-15T12:47:23;30.98;;;13.50;;
69188;SDS011;56302;52.322;5.926;2023-02-15T12:52:42;33.58;;;14.55;;
69188;SDS011;56302;52.322;5.926;2023-02-15T12:55:10;29.53;;;13.63;;
69188;SDS011;56302;52.322;5.926;2023-02-15T12:57:43;31.58;;;14.10;;
69188;SDS011;56302;52.322;5.926;2023-02-15T13:02:44;31.55;;;13.65;;
69188;SDS011;56302;52.322;5.926;2023-02-15T13:05:22;29.15;;;13.35;;
69188;SDS011;56302;52.322;5.926;2023-02-15T13:07:57;30.63;;;13.63;;
69188;SDS011;56302;52.322;5.926;2023-02-15T13:10:35;30.20;;;13.73;;
69188;SDS011;56302;52.322;5.926;2023-02-15T13:13:18;33.63;;;14.65;;
69188;SDS011;56302;52.322;5.926;2023-02-15T13:15:48;31.85;;;13.38;;
69188;SDS011;56302;52.322;5.926;2023-02-15T13:18:16;31.90;;;14.73;;
69188;SDS011;56302;52.322;5.926;2023-02-15T13:20:48;29.07;;;14.30;;
69188;SDS011;56302;52.322;5.926;2023-02-15T13:23:26;28.85;;;13.23;;
69188;SDS011;56302;52.322;5.926;2023-02-15T13:25:52;33.25;;;14.02;;
69188;SDS011;56302;52.322;5.926;2023-02-15T13:28:22;26.30;;;13.43;;
69188;SDS011;56302;52.322;5.926;2023-02-15T13:30:57;31.65;;;14.45;;
69188;SDS011;56302;52.322;5.926;2023-02-15T13:33:25;29.60;;;14.23;;
69188;SDS011;56302;52.322;5.926;2023-02-15T13:36:04;29.08;;;14.07;;
69188;SDS011;56302;52.322;5.926;2023-02-15T13:41:31;36.10;;;14.63;;
69188;SDS011;56302;52.322;5.926;2023-02-15T13:52:19;31.67;;;14.68;;
69188;SDS011;56302;52.322;5.926;2023-02-15T14:03:12;29.05;;;13.70;;
69188;SDS011;56302;52.322;5.926;2023-02-15T14:08:55;27.40;;;14.38;;
69188;SDS011;56302;52.322;5.926;2023-02-15T14:23:00;33.15;;;15.82;;
69188;SDS011;56302;52.322;5.926;2023-02-15T14:30:45;30.60;;;14.52;;
69188;SDS011;56302;52.322;5.926;2023-02-15T14:35:39;30.10;;;14.93;;
69188;SDS011;56302;52.322;5.926;2023-02-15T14:38:12;35.03;;;15.70;;
69188;SDS011;56302;52.322;5.926;2023-02-15T14:43:33;34.73;;;15.57;;
69188;SDS011;56302;52.322;5.926;2023-02-15T14:49:05;32.58;;;14.93;;
69188;SDS011;56302;52.322;5.926;2023-02-15T14:56:47;34.53;;;15.30;;
69188;SDS011;56302;52.322;5.926;2023-02-15T15:02:13;30.83;;;15.38;;
69188;SDS011;56302;52.322;5.926;2023-02-15T15:04:44;33.53;;;14.50;;
69188;SDS011;56302;52.322;5.926;2023-02-15T15:07:22;33.75;;;16.42;;
69188;SDS011;56302;52.322;5.926;2023-02-15T15:10:07;31.20;;;15.63;;
69188;SDS011;56302;52.322;5.926;2023-02-15T15:12:57;34.95;;;15.82;;
69188;SDS011;56302;52.322;5.926;2023-02-15T15:23:33;33.85;;;16.80;;
69188;SDS011;56302;52.322;5.926;2023-02-15T15:25:50;31.85;;;16.98;;
69188;SDS011;56302;52.322;5.926;2023-02-15T15:31:09;30.93;;;15.73;;
69188;SDS011;56302;52.322;5.926;2023-02-15T15:48:31;33.75;;;18.25;;
69188;SDS011;56302;52.322;5.926;2023-02-15T15:51:09;38.78;;;19.77;;
69188;SDS011;56302;52.322;5.926;2023-02-15T15:53:43;37.58;;;18.23;;
69188;SDS011;56302;52.322;5.926;2023-02-15T15:56:15;35.08;;;19.23;;
69188;SDS011;56302;52.322;5.926;2023-02-15T15:58:47;35.30;;;17.48;;
69188;SDS011;56302;52.322;5.926;2023-02-15T16:01:24;36.53;;;18.92;;
69188;SDS011;56302;52.322;5.926;2023-02-15T16:03:52;36.55;;;19.00;;
69188;SDS011;56302;52.322;5.926;2023-02-15T16:06:30;39.17;;;19.08;;
69188;SDS011;56302;52.322;5.926;2023-02-15T16:11:58;37.13;;;20.13;;
69188;SDS011;56302;52.322;5.926;2023-02-15T16:14:35;35.75;;;18.42;;
69188;SDS011;56302;52.322;5.926;2023-02-15T16:17:04;39.15;;;20.27;;
69188;SDS011;56302;52.322;5.926;2023-02-15T16:19:33;38.75;;;18.30;;
69188;SDS011;56302;52.322;5.926;2023-02-15T16:22:02;39.35;;;20.10;;
69188;SDS011;56302;52.322;5.926;2023-02-15T16:27:38;35.53;;;19.13;;
69188;SDS011;56302;52.322;5.926;2023-02-15T16:30:30;38.38;;;19.35;;
69188;SDS011;56302;52.322;5.926;2023-02-15T16:33:03;40.33;;;18.60;;
69188;SDS011;56302;52.322;5.926;2023-02-15T16:35:31;36.30;;;18.35;;
69188;SDS011;56302;52.322;5.926;2023-02-15T16:37:57;39.70;;;18.48;;
69188;SDS011;56302;52.322;5.926;2023-02-15T16:42:50;36.03;;;18.23;;
69188;SDS011;56302;52.322;5.926;2023-02-15T16:45:17;39.13;;;19.58;;
69188;SDS011;56302;52.322;5.926;2023-02-15T16:47:46;37.67;;;18.83;;
69188;SDS011;56302;52.322;5.926;2023-02-15T16:50:19;36.83;;;20.42;;
69188;SDS011;56302;52.322;5.926;2023-02-15T16:52:52;37.63;;;19.08;;
69188;SDS011;56302;52.322;5.926;2023-02-15T16:55:24;38.42;;;18.50;;
69188;SDS011;56302;52.322;5.926;2023-02-15T16:57:56;38.00;;;19.95;;
69188;SDS011;56302;52.322;5.926;2023-02-15T17:00:26;37.53;;;19.87;;
69188;SDS011;56302;52.322;5.926;2023-02-15T17:02:59;40.25;;;19.90;;
69188;SDS011;56302;52.322;5.926;2023-02-15T17:05:41;38.53;;;19.90;;
69188;SDS011;56302;52.322;5.926;2023-02-15T17:08:14;38.08;;;19.45;;
69188;SDS011;56302;52.322;5.926;2023-02-15T17:11:02;37.90;;;19.63;;
69188;SDS011;56302;52.322;5.926;2023-02-15T17:16:35;35.97;;;18.90;;
69188;SDS011;56302;52.322;5.926;2023-02-15T17:19:09;39.53;;;19.58;;
69188;SDS011;56302;52.322;5.926;2023-02-15T17:21:41;37.33;;;18.90;;
69188;SDS011;56302;52.322;5.926;2023-02-15T17:24:15;45.45;;;19.75;;
69188;SDS011;56302;52.322;5.926;2023-02-15T17:26:45;35.38;;;18.67;;
69188;SDS011;56302;52.322;5.926;2023-02-15T17:29:22;42.22;;;19.90;;
69188;SDS011;56302;52.322;5.926;2023-02-15T17:31:52;37.70;;;18.33;;
69188;SDS011;56302;52.322;5.926;2023-02-15T17:37:12;36.97;;;18.77;;
69188;SDS011;56302;52.322;5.926;2023-02-15T17:39:50;37.03;;;18.60;;
69188;SDS011;56302;52.322;5.926;2023-02-15T17:42:15;34.35;;;18.33;;
69188;SDS011;56302;52.322;5.926;2023-02-15T17:44:41;33.13;;;18.07;;
69188;SDS011;56302;52.322;5.926;2023-02-15T17:47:06;36.43;;;18.03;;
69188;SDS011;56302;52.322;5.926;2023-02-15T17:49:34;35.95;;;18.33;;
69188;SDS011;56302;52.322;5.926;2023-02-15T17:52:01;39.85;;;20.42;;
69188;SDS011;56302;52.322;5.926;2023-02-15T17:54:28;36.65;;;17.58;;